createdAt,value
2019-05-30T00:00:50.208Z,8.13
2019-05-30T00:03:18.110Z,9.67
2019-05-30T00:05:46.199Z,8.50
2019-05-30T00:08:14.210Z,8.08
2019-05-30T00:10:42.120Z,8.60
2019-05-30T00:13:10.061Z,8.55
2019-05-30T00:15:37.981Z,8.40
2019-05-30T00:18:05.886Z,8.83
2019-05-30T00:20:33.769Z,8.23
2019-05-30T00:23:01.708Z,8.85
2019-05-30T00:25:30.634Z,9.15
2019-05-30T00:27:59.161Z,9.58
2019-05-30T00:30:27.177Z,9.45
2019-05-30T00:32:56.641Z,9.63
2019-05-30T00:35:24.868Z,9.73
2019-05-30T00:37:53.844Z,8.78
2019-05-30T00:40:21.843Z,9.70
2019-05-30T00:42:49.925Z,9.40
2019-05-30T00:45:21.211Z,9.40
2019-05-30T00:47:48.020Z,9.30
2019-05-30T00:50:15.951Z,10.00
2019-05-30T00:52:43.998Z,9.48
2019-05-30T00:55:13.020Z,9.25
2019-05-30T00:57:40.960Z,9.63
2019-05-30T01:00:12.101Z,9.20
2019-05-30T01:02:40.116Z,8.95
2019-05-30T01:05:08.288Z,9.20
2019-05-30T01:07:36.503Z,8.85
2019-05-30T01:10:05.257Z,8.80
2019-05-30T01:12:33.266Z,8.45
2019-05-30T01:15:01.215Z,8.40
2019-05-30T01:17:29.179Z,8.85
2019-05-30T01:19:57.137Z,8.95
2019-05-30T01:22:25.006Z,9.08
2019-05-30T01:24:53.677Z,9.85
2019-05-30T01:27:21.606Z,10.05
2019-05-30T01:29:50.055Z,10.38
2019-05-30T01:32:26.688Z,9.58
2019-05-30T01:34:54.670Z,9.15
2019-05-30T01:37:22.558Z,9.98
2019-05-30T01:39:50.521Z,9.30
2019-05-30T01:42:18.452Z,10.80
2019-05-30T01:44:46.399Z,9.88
2019-05-30T01:47:14.323Z,10.48
2019-05-30T01:49:42.302Z,10.05
2019-05-30T01:52:10.161Z,10.13
2019-05-30T01:54:38.288Z,10.82
2019-05-30T01:57:06.793Z,10.57
2019-05-30T01:59:34.750Z,10.13
2019-05-30T02:02:03.001Z,9.88
2019-05-30T02:04:31.029Z,9.95
2019-05-30T02:06:59.270Z,10.95
2019-05-30T02:09:27.296Z,10.50
2019-05-30T02:11:56.105Z,10.13
2019-05-30T02:14:24.017Z,10.35
2019-05-30T02:16:51.907Z,10.60
2019-05-30T02:19:20.074Z,11.15
2019-05-30T02:21:48.024Z,11.85
2019-05-30T02:24:16.012Z,12.25
2019-05-30T02:26:43.891Z,11.60
2019-05-30T02:29:11.818Z,11.03
2019-05-30T02:31:40.492Z,10.72
2019-05-30T02:34:11.399Z,10.90
2019-05-30T02:36:38.226Z,11.43
2019-05-30T02:39:07.605Z,11.65
2019-05-30T02:41:37.013Z,11.57
2019-05-30T02:44:05.526Z,11.60
2019-05-30T02:46:34.015Z,11.70
2019-05-30T02:49:04.477Z,11.15
2019-05-30T02:51:32.074Z,11.12
2019-05-30T02:54:01.563Z,10.95
2019-05-30T02:56:30.644Z,10.30
2019-05-30T02:58:58.546Z,11.15
2019-05-30T03:01:26.420Z,11.55
2019-05-30T03:03:54.385Z,10.95
2019-05-30T03:06:22.467Z,10.30
2019-05-30T03:08:50.342Z,10.55
2019-05-30T03:11:18.675Z,11.05
2019-05-30T03:13:46.658Z,11.93
2019-05-30T03:16:14.730Z,11.08
2019-05-30T03:18:43.405Z,11.55
2019-05-30T03:21:14.808Z,12.13
2019-05-30T03:23:41.322Z,12.13
2019-05-30T03:26:10.731Z,11.83
2019-05-30T03:28:39.328Z,12.35
2019-05-30T03:31:14.057Z,12.00
2019-05-30T03:33:41.992Z,11.80
2019-05-30T03:36:18.008Z,12.20
2019-05-30T03:38:37.399Z,10.48
2019-05-30T03:41:07.539Z,12.43
2019-05-30T03:43:36.018Z,10.40
2019-05-30T03:46:10.593Z,10.85
2019-05-30T03:48:40.999Z,11.28
2019-05-30T03:51:13.503Z,11.60
2019-05-30T03:53:41.168Z,11.35
2019-05-30T03:56:15.963Z,11.50
2019-05-30T03:59:03.077Z,9.93
2019-05-30T04:01:47.949Z,10.45
2019-05-30T04:04:23.373Z,11.05
2019-05-30T04:06:59.622Z,10.68
2019-05-30T04:09:28.972Z,10.28
2019-05-30T04:12:14.220Z,11.85
2019-05-30T04:14:46.670Z,10.65
2019-05-30T04:17:16.013Z,10.68
2019-05-30T04:19:44.382Z,11.53
2019-05-30T04:22:13.546Z,11.05
2019-05-30T04:24:41.435Z,9.95
2019-05-30T04:27:09.958Z,10.20
2019-05-30T04:29:38.390Z,10.05
2019-05-30T04:32:08.274Z,10.40
2019-05-30T04:34:36.051Z,9.10
2019-05-30T04:37:03.936Z,8.23
2019-05-30T04:39:31.831Z,10.23
2019-05-30T04:41:59.858Z,9.00
2019-05-30T04:44:27.751Z,8.68
2019-05-30T04:46:56.851Z,8.10
2019-05-30T04:49:24.707Z,8.40
2019-05-30T04:51:52.679Z,8.20
2019-05-30T04:54:21.406Z,8.80
2019-05-30T04:56:49.635Z,7.97
2019-05-30T04:59:19.819Z,8.13
2019-05-30T05:01:47.469Z,7.60
2019-05-30T05:04:15.633Z,7.80
2019-05-30T05:06:43.849Z,7.40
2019-05-30T05:09:12.019Z,7.60
2019-05-30T05:11:40.175Z,7.60
2019-05-30T05:14:08.025Z,6.50
2019-05-30T05:16:36.604Z,5.90
2019-05-30T05:19:08.808Z,6.30
2019-05-30T05:21:36.695Z,6.27
2019-05-30T05:24:04.591Z,6.60
2019-05-30T05:26:32.548Z,6.97
2019-05-30T05:29:00.619Z,6.03
2019-05-30T05:31:28.610Z,6.67
2019-05-30T05:33:57.487Z,6.43
2019-05-30T05:36:25.496Z,6.83
2019-05-30T05:38:55.242Z,6.37
2019-05-30T05:41:24.292Z,5.80
2019-05-30T05:43:52.460Z,6.33
2019-05-30T05:46:20.917Z,5.93
2019-05-30T05:48:48.789Z,5.80
2019-05-30T05:51:18.769Z,5.83
2019-05-30T05:53:46.684Z,5.80
2019-05-30T05:56:14.807Z,5.93
2019-05-30T05:58:42.735Z,6.23
2019-05-30T06:01:10.643Z,6.80
2019-05-30T06:03:39.718Z,6.60
2019-05-30T06:06:07.559Z,6.57
2019-05-30T06:08:35.628Z,7.10
2019-05-30T06:11:03.488Z,6.93
2019-05-30T06:13:31.544Z,6.80
2019-05-30T06:15:59.470Z,6.80
2019-05-30T06:18:28.429Z,6.17
2019-05-30T06:20:56.958Z,7.57
2019-05-30T06:23:26.015Z,6.97
2019-05-30T06:25:54.009Z,8.27
2019-05-30T06:28:22.074Z,6.90
2019-05-30T06:30:50.086Z,8.67
2019-05-30T06:33:18.581Z,7.27
2019-05-30T06:35:46.965Z,6.83
2019-05-30T06:38:15.169Z,6.93
2019-05-30T06:40:43.656Z,7.33
2019-05-30T06:43:11.885Z,6.77
2019-05-30T06:45:39.812Z,6.40
2019-05-30T06:48:07.782Z,6.17
2019-05-30T06:50:35.709Z,6.03
2019-05-30T06:53:03.621Z,6.40
2019-05-30T06:55:31.609Z,6.50
2019-05-30T06:57:59.799Z,6.10
2019-05-30T07:00:28.190Z,5.90
2019-05-30T07:02:56.105Z,5.53
2019-05-30T07:05:26.227Z,5.50
2019-05-30T07:07:54.325Z,5.37
2019-05-30T07:10:22.815Z,5.17
2019-05-30T07:12:51.140Z,5.37
2019-05-30T07:15:19.208Z,4.60
2019-05-30T07:17:47.191Z,4.90
2019-05-30T07:20:15.855Z,4.50
2019-05-30T07:22:43.750Z,4.77
2019-05-30T07:25:12.107Z,4.83
2019-05-30T07:27:40.673Z,5.10
2019-05-30T07:30:09.112Z,4.90
2019-05-30T07:32:37.064Z,3.57
2019-05-30T07:35:07.134Z,4.07
2019-05-30T07:37:36.665Z,4.60
2019-05-30T07:40:05.509Z,4.03
2019-05-30T07:42:34.802Z,4.27
2019-05-30T07:45:03.884Z,4.07
2019-05-30T07:47:32.211Z,3.40
2019-05-30T07:50:05.349Z,3.90
2019-05-30T07:52:34.790Z,3.80
2019-05-30T07:55:03.174Z,4.80
2019-05-30T07:57:32.843Z,4.00
2019-05-30T08:00:01.019Z,4.53
2019-05-30T08:02:29.583Z,3.67
2019-05-30T08:04:57.715Z,4.03
2019-05-30T08:07:26.553Z,3.40
2019-05-30T08:09:54.682Z,3.33
2019-05-30T08:12:22.922Z,4.07
2019-05-30T08:14:50.879Z,3.53
2019-05-30T08:17:18.804Z,3.50
2019-05-30T08:19:46.733Z,4.00
2019-05-30T08:22:14.672Z,4.50
2019-05-30T08:24:42.661Z,4.07
2019-05-30T08:27:10.442Z,3.90
2019-05-30T08:29:38.610Z,3.60
2019-05-30T08:32:06.605Z,3.50
2019-05-30T08:34:36.599Z,3.67
2019-05-30T08:37:04.710Z,4.93
2019-05-30T08:39:33.848Z,3.93
2019-05-30T08:42:01.753Z,4.47
2019-05-30T08:44:29.631Z,4.60
2019-05-30T08:46:57.446Z,4.17
2019-05-30T08:49:25.316Z,3.50
2019-05-30T08:51:53.197Z,2.97
2019-05-30T08:54:21.126Z,4.77
2019-05-30T08:56:48.973Z,3.70
2019-05-30T08:59:16.905Z,3.43
2019-05-30T09:01:46.010Z,3.53
2019-05-30T09:04:14.311Z,3.10
2019-05-30T09:06:42.158Z,3.47
2019-05-30T09:09:10.057Z,3.20
2019-05-30T09:11:39.323Z,3.47
2019-05-30T09:14:07.774Z,3.70
2019-05-30T09:16:35.622Z,3.33
2019-05-30T09:19:03.713Z,3.13
2019-05-30T09:21:31.588Z,3.90
2019-05-30T09:24:01.411Z,3.00
2019-05-30T09:26:29.197Z,2.83
2019-05-30T09:28:57.053Z,2.40
2019-05-30T09:31:24.989Z,3.93
2019-05-30T09:33:52.882Z,3.70
2019-05-30T09:36:21.069Z,3.90
2019-05-30T09:38:49.767Z,2.90
2019-05-30T09:41:17.762Z,3.60
2019-05-30T09:43:46.393Z,3.60
2019-05-30T09:46:14.581Z,3.53
2019-05-30T09:48:43.210Z,3.60
2019-05-30T09:51:11.659Z,3.80
2019-05-30T09:53:39.664Z,3.67
2019-05-30T09:56:07.547Z,3.43
2019-05-30T09:58:35.816Z,3.67
2019-05-30T10:01:04.870Z,2.93
2019-05-30T10:03:32.853Z,3.40
2019-05-30T10:06:00.888Z,3.43
2019-05-30T10:08:28.860Z,3.40
2019-05-30T10:10:56.803Z,3.50
2019-05-30T10:13:24.810Z,2.83
2019-05-30T10:15:52.786Z,3.10
2019-05-30T10:18:20.681Z,3.40
2019-05-30T10:20:51.780Z,2.80
2019-05-30T10:23:19.357Z,3.13
2019-05-30T10:25:47.902Z,2.60
2019-05-30T10:28:17.579Z,2.70
2019-05-30T10:30:50.945Z,2.90
2019-05-30T10:33:15.368Z,2.77
2019-05-30T10:35:45.567Z,3.43
2019-05-30T10:38:13.785Z,2.90
2019-05-30T10:40:41.671Z,3.20
2019-05-30T10:43:09.601Z,2.80
2019-05-30T10:45:38.785Z,2.50
2019-05-30T10:48:07.138Z,2.90
2019-05-30T10:50:35.282Z,3.20
2019-05-30T10:53:03.394Z,3.80
2019-05-30T10:55:31.369Z,4.10
2019-05-30T10:57:59.794Z,3.30
2019-05-30T11:00:55.902Z,3.67
2019-05-30T11:03:26.850Z,4.30
2019-05-30T11:06:40.668Z,4.20
2019-05-30T11:09:08.608Z,4.10
2019-05-30T11:11:36.535Z,4.17
2019-05-30T11:14:04.427Z,3.40
2019-05-30T11:16:33.566Z,3.40
2019-05-30T11:19:06.846Z,3.63
2019-05-30T11:21:31.304Z,3.10
2019-05-30T11:23:59.227Z,2.97
2019-05-30T11:26:27.218Z,3.50
2019-05-30T11:28:55.214Z,3.37
2019-05-30T11:31:23.100Z,3.03
2019-05-30T11:33:50.907Z,2.37
2019-05-30T11:36:19.177Z,2.70
2019-05-30T11:38:49.115Z,2.57
2019-05-30T11:41:17.498Z,2.87
2019-05-30T11:43:45.412Z,3.10
2019-05-30T11:46:13.369Z,2.70
2019-05-30T11:48:41.298Z,2.83
2019-05-30T11:51:09.259Z,2.80
2019-05-30T11:53:37.227Z,2.73
2019-05-30T11:56:05.166Z,2.40
2019-05-30T11:58:33.106Z,2.67
2019-05-30T12:01:01.240Z,2.73
2019-05-30T12:03:32.263Z,1.93
2019-05-30T12:06:00.834Z,1.90
2019-05-30T12:08:28.909Z,1.43
2019-05-30T12:10:57.199Z,1.70
2019-05-30T12:13:25.325Z,1.50
2019-05-30T12:15:53.448Z,1.13
2019-05-30T12:18:21.480Z,1.80
2019-05-30T12:20:51.658Z,1.57
2019-05-30T12:23:21.893Z,1.10
2019-05-30T12:25:49.977Z,1.37
2019-05-30T12:28:20.246Z,1.30
2019-05-30T12:30:57.747Z,1.10
2019-05-30T12:33:18.258Z,1.47
2019-05-30T12:35:46.336Z,1.20
2019-05-30T12:38:14.282Z,1.20
2019-05-30T12:40:42.265Z,1.30
2019-05-30T12:43:10.175Z,1.50
2019-05-30T12:45:38.215Z,1.47
2019-05-30T12:48:06.194Z,1.50
2019-05-30T12:50:34.207Z,1.20
2019-05-30T12:53:02.238Z,1.90
2019-05-30T12:55:30.122Z,1.80
2019-05-30T12:57:58.586Z,1.30
2019-05-30T13:00:27.587Z,1.50
2019-05-30T13:02:56.523Z,1.53
2019-05-30T13:05:24.864Z,1.47
2019-05-30T13:07:52.901Z,1.23
2019-05-30T13:10:21.629Z,1.40
2019-05-30T13:12:49.537Z,1.00
2019-05-30T13:15:17.852Z,1.40
2019-05-30T13:17:45.879Z,1.60
2019-05-30T13:20:14.433Z,1.10
2019-05-30T13:22:42.848Z,1.23
2019-05-30T13:25:11.957Z,1.10
2019-05-30T13:27:39.884Z,1.30
2019-05-30T13:30:10.490Z,1.40
2019-05-30T13:32:38.371Z,1.10
2019-05-30T13:35:07.628Z,1.17
2019-05-30T13:37:36.050Z,1.37
2019-05-30T13:40:20.803Z,1.20
2019-05-30T13:42:35.854Z,1.40
2019-05-30T13:45:04.254Z,1.70
2019-05-30T13:47:32.329Z,1.40
2019-05-30T13:50:00.691Z,1.50
2019-05-30T13:52:28.829Z,1.63
2019-05-30T13:54:56.698Z,1.43
2019-05-30T13:57:25.592Z,1.67
2019-05-30T13:59:53.638Z,1.30
2019-05-30T14:02:21.541Z,1.43
2019-05-30T14:04:49.482Z,1.13
2019-05-30T14:07:17.423Z,1.40
2019-05-30T14:09:45.843Z,1.33
2019-05-30T14:12:13.905Z,1.40
2019-05-30T14:14:42.014Z,1.47
2019-05-30T14:17:12.305Z,1.90
2019-05-30T14:19:39.884Z,1.60
2019-05-30T14:22:07.921Z,1.60
2019-05-30T14:24:36.094Z,1.80
2019-05-30T14:27:05.418Z,1.70
2019-05-30T14:29:33.891Z,1.20
2019-05-30T14:32:03.806Z,1.30
2019-05-30T14:34:33.072Z,1.57
2019-05-30T14:37:02.487Z,1.70
2019-05-30T14:39:31.539Z,1.53
2019-05-30T14:41:59.446Z,1.77
2019-05-30T14:44:27.330Z,1.60
2019-05-30T14:46:55.307Z,1.40
2019-05-30T14:49:23.281Z,1.93
2019-05-30T14:51:51.262Z,1.43
2019-05-30T14:54:19.128Z,1.27
2019-05-30T14:56:47.014Z,1.50
2019-05-30T14:59:15.127Z,1.90
2019-05-30T15:01:43.051Z,1.53
2019-05-30T15:04:13.473Z,1.60
2019-05-30T15:06:41.602Z,1.50
2019-05-30T15:09:20.121Z,1.70
2019-05-30T15:11:39.403Z,1.93
2019-05-30T15:14:08.554Z,1.80
2019-05-30T15:16:36.676Z,1.40
2019-05-30T15:19:04.622Z,1.60
2019-05-30T15:21:35.303Z,1.37
2019-05-30T15:24:03.256Z,1.40
2019-05-30T15:26:31.417Z,1.80
2019-05-30T15:28:59.533Z,1.33
2019-05-30T15:31:27.503Z,1.40
2019-05-30T15:33:55.460Z,1.60
2019-05-30T15:36:23.429Z,1.67
2019-05-30T15:38:54.654Z,1.60
2019-05-30T15:41:22.741Z,1.50
2019-05-30T15:43:50.689Z,1.77
2019-05-30T15:46:19.101Z,2.00
2019-05-30T15:48:47.071Z,1.50
2019-05-30T15:51:15.063Z,1.60
2019-05-30T15:53:43.200Z,1.70
2019-05-30T15:56:11.163Z,1.90
2019-05-30T15:58:39.072Z,1.80
2019-05-30T16:01:07.424Z,1.50
2019-05-30T16:03:36.187Z,1.67
2019-05-30T16:06:04.079Z,1.80
2019-05-30T16:08:32.130Z,2.03
2019-05-30T16:11:00.436Z,1.30
2019-05-30T16:13:28.332Z,1.50
2019-05-30T16:15:56.320Z,1.63
2019-05-30T16:18:25.398Z,1.70
2019-05-30T16:20:53.467Z,1.77
2019-05-30T16:23:22.494Z,1.70
2019-05-30T16:25:50.552Z,1.60
2019-05-30T16:28:19.554Z,2.00
2019-05-30T16:30:47.824Z,1.90
2019-05-30T16:33:17.897Z,1.80
2019-05-30T16:35:45.972Z,2.00
2019-05-30T16:38:14.028Z,1.47
2019-05-30T16:40:41.979Z,1.90
2019-05-30T16:43:10.109Z,1.50
2019-05-30T16:45:38.338Z,1.73
2019-05-30T16:48:06.435Z,2.53
2019-05-30T16:50:34.587Z,1.77
2019-05-30T16:53:02.666Z,1.53
2019-05-30T16:55:30.621Z,1.83
2019-05-30T16:57:58.615Z,1.63
2019-05-30T17:00:26.639Z,1.60
2019-05-30T17:02:54.537Z,1.57
2019-05-30T17:05:22.594Z,1.57
2019-05-30T17:07:50.575Z,1.70
2019-05-30T17:10:26.675Z,1.80
2019-05-30T17:12:49.489Z,1.37
2019-05-30T17:15:17.817Z,1.70
2019-05-30T17:17:45.967Z,1.43
2019-05-30T17:20:14.456Z,1.90
2019-05-30T17:22:44.615Z,1.90
2019-05-30T17:25:14.200Z,1.57
2019-05-30T17:27:44.228Z,1.57
2019-05-30T17:30:13.083Z,1.57
2019-05-30T17:32:41.166Z,2.03
2019-05-30T17:35:09.557Z,1.93
2019-05-30T17:37:37.612Z,1.77
2019-05-30T17:40:06.234Z,1.70
2019-05-30T17:42:34.245Z,1.37
2019-05-30T17:45:21.165Z,1.20
2019-05-30T17:47:59.460Z,1.50
2019-05-30T17:50:19.811Z,1.47
2019-05-30T17:52:47.928Z,1.60
2019-05-30T17:55:16.133Z,2.57
2019-05-30T17:57:44.645Z,1.80
2019-05-30T18:00:14.509Z,1.40
2019-05-30T18:02:42.688Z,1.27
2019-05-30T18:05:11.987Z,1.70
2019-05-30T18:07:39.985Z,1.10
2019-05-30T18:10:08.522Z,1.40
2019-05-30T18:12:36.510Z,1.30
2019-05-30T18:15:06.013Z,1.27
2019-05-30T18:17:34.025Z,1.20
2019-05-30T18:20:02.041Z,1.60
2019-05-30T18:22:32.402Z,1.30
2019-05-30T18:25:00.439Z,1.60
2019-05-30T18:27:29.962Z,1.93
2019-05-30T18:29:58.113Z,2.30
2019-05-30T18:32:26.205Z,4.10
2019-05-30T18:34:57.216Z,1.63
2019-05-30T18:37:26.272Z,1.57
2019-05-30T18:39:54.284Z,1.37
2019-05-30T18:42:23.061Z,1.50
2019-05-30T18:44:51.256Z,1.50
2019-05-30T18:47:19.229Z,1.53
2019-05-30T18:49:48.035Z,1.57
2019-05-30T18:52:17.342Z,2.37
2019-05-30T18:54:45.408Z,1.80
2019-05-30T18:57:14.569Z,1.90
2019-05-30T18:59:42.467Z,1.57
2019-05-30T19:02:10.408Z,1.93
2019-05-30T19:04:38.381Z,3.47
2019-05-30T19:07:07.426Z,1.60
2019-05-30T19:09:35.363Z,2.23
2019-05-30T19:12:03.348Z,1.87
2019-05-30T19:14:34.494Z,2.03
2019-05-30T19:17:02.375Z,1.80
2019-05-30T19:19:31.711Z,1.83
2019-05-30T19:21:59.813Z,1.87
2019-05-30T19:24:28.149Z,1.93
2019-05-30T19:26:56.126Z,1.50
2019-05-30T19:29:24.256Z,1.60
2019-05-30T19:31:52.218Z,1.80
2019-05-30T19:34:20.202Z,1.80
2019-05-30T19:36:48.108Z,1.40
2019-05-30T19:39:16.108Z,1.77
2019-05-30T19:41:55.703Z,1.70
2019-05-30T19:44:13.843Z,1.57
2019-05-30T19:46:41.914Z,1.67
2019-05-30T19:49:10.024Z,1.80
2019-05-30T19:51:39.328Z,2.03
2019-05-30T19:54:07.420Z,1.63
2019-05-30T19:56:38.748Z,2.00
2019-05-30T19:59:05.539Z,2.10
2019-05-30T20:01:33.825Z,2.20
2019-05-30T20:04:02.230Z,2.43
2019-05-30T20:06:30.645Z,2.13
2019-05-30T20:09:41.270Z,2.17
2019-05-30T20:12:17.213Z,2.00
2019-05-30T20:15:24.573Z,2.20
2019-05-30T20:18:30.022Z,2.10
2019-05-30T20:21:29.839Z,2.33
2019-05-30T20:24:04.448Z,2.00
2019-05-30T20:27:01.017Z,2.13
2019-05-30T20:30:10.695Z,2.50
2019-05-30T20:33:04.168Z,2.43
2019-05-30T20:35:49.802Z,2.50
2019-05-30T20:38:42.884Z,2.60
2019-05-30T20:41:18.051Z,2.13
2019-05-30T20:44:12.449Z,2.57
2019-05-30T20:46:51.199Z,2.40
2019-05-30T20:49:41.196Z,2.07
2019-05-30T20:52:29.668Z,1.80
2019-05-30T20:55:03.580Z,2.87
2019-05-30T20:57:34.332Z,2.43
2019-05-30T21:00:02.756Z,2.07
2019-05-30T21:02:32.750Z,2.23
2019-05-30T21:05:00.857Z,2.10
2019-05-30T21:07:28.898Z,1.80
2019-05-30T21:09:57.810Z,2.07
2019-05-30T21:12:36.918Z,2.00
2019-05-30T21:15:00.133Z,2.80
2019-05-30T21:17:31.354Z,2.30
2019-05-30T21:20:00.312Z,2.27
2019-05-30T21:22:28.215Z,2.47
2019-05-30T21:24:56.143Z,1.93
2019-05-30T21:27:24.077Z,1.90
2019-05-30T21:29:52.049Z,2.00
2019-05-30T21:32:20.011Z,1.97
2019-05-30T21:34:48.668Z,1.97
2019-05-30T21:37:16.794Z,1.80
2019-05-30T21:39:46.136Z,1.70
2019-05-30T21:42:14.126Z,2.00
2019-05-30T21:44:42.701Z,2.00
2019-05-30T21:47:10.745Z,2.13
2019-05-30T21:49:41.558Z,1.73
2019-05-30T21:52:09.855Z,1.87
2019-05-30T21:54:37.776Z,2.40
2019-05-30T21:57:06.122Z,2.10
2019-05-30T21:59:34.120Z,2.00
2019-05-30T22:02:02.297Z,1.90
2019-05-30T22:04:30.212Z,1.73
2019-05-30T22:06:58.326Z,2.20
2019-05-30T22:09:26.304Z,2.13
2019-05-30T22:11:54.588Z,2.30
2019-05-30T22:14:22.491Z,2.57
2019-05-30T22:16:50.443Z,2.20
2019-05-30T22:19:18.386Z,2.10
2019-05-30T22:21:46.356Z,1.83
2019-05-30T22:24:14.270Z,1.93
2019-05-30T22:26:42.498Z,2.00
2019-05-30T22:29:10.453Z,2.70
2019-05-30T22:31:38.365Z,1.90
2019-05-30T22:34:06.413Z,2.40
2019-05-30T22:36:34.374Z,2.23
2019-05-30T22:39:03.789Z,2.80
2019-05-30T22:41:33.353Z,2.10
2019-05-30T22:44:01.269Z,1.97
2019-05-30T22:46:29.230Z,2.50
2019-05-30T22:49:06.325Z,2.33
2019-05-30T22:51:34.203Z,2.50
2019-05-30T22:54:02.138Z,2.33
2019-05-30T22:56:30.090Z,2.47
2019-05-30T22:58:58.031Z,2.20
2019-05-30T23:01:25.928Z,2.33
2019-05-30T23:03:54.105Z,2.60
2019-05-30T23:06:22.540Z,2.00
2019-05-30T23:08:50.565Z,2.30
2019-05-30T23:11:18.384Z,2.30
2019-05-30T23:13:46.265Z,2.30
2019-05-30T23:16:14.178Z,2.53
2019-05-30T23:18:42.029Z,2.50
2019-05-30T23:21:09.904Z,2.60
2019-05-30T23:23:38.887Z,2.37
2019-05-30T23:26:07.899Z,2.50
2019-05-30T23:28:36.890Z,2.40
2019-05-30T23:31:04.849Z,2.20
2019-05-30T23:33:32.730Z,2.47
2019-05-30T23:36:00.605Z,2.90
2019-05-30T23:38:28.503Z,2.40
2019-05-30T23:40:57.094Z,2.53
2019-05-30T23:43:25.036Z,2.70
2019-05-30T23:45:53.316Z,2.90
2019-05-30T23:48:21.533Z,2.50
2019-05-30T23:50:49.736Z,2.90
2019-05-30T23:53:17.692Z,3.97
2019-05-30T23:55:45.559Z,3.00
2019-05-30T23:58:13.509Z,2.50
